createdAt,value
2022-09-10T00:01:20.699Z,97091.00
2022-09-10T00:03:51.356Z,97095.00
2022-09-10T00:06:19.510Z,97068.00
2022-09-10T00:08:47.661Z,97077.00
2022-09-10T00:11:15.168Z,97083.00
2022-09-10T00:13:42.619Z,97087.00
2022-09-10T00:16:13.872Z,97091.00
2022-09-10T00:18:43.515Z,97094.00
2022-09-10T00:21:14.981Z,97074.00
2022-09-10T00:23:45.849Z,97074.00
2022-09-10T00:26:27.901Z,97081.00
2022-09-10T00:29:01.179Z,97090.00
2022-09-10T00:31:30.530Z,97090.00
2022-09-10T00:34:00.095Z,97092.00
2022-09-10T00:36:39.606Z,97080.00
2022-09-10T00:39:18.357Z,97080.00
2022-09-10T00:41:48.508Z,97086.00
2022-09-10T00:44:43.132Z,97076.00
2022-09-10T00:47:37.540Z,97070.00
2022-09-10T00:50:31.663Z,97078.00
2022-09-10T00:53:03.840Z,97062.00
2022-09-10T00:55:31.574Z,97074.00
2022-09-10T00:58:02.495Z,97071.00
2022-09-10T01:00:29.537Z,97075.00
2022-09-10T01:02:58.636Z,97063.00
2022-09-10T01:05:26.622Z,97073.00
2022-09-10T01:07:53.806Z,97066.00
2022-09-10T01:10:36.571Z,97067.00
2022-09-10T01:13:27.062Z,97074.00
2022-09-10T01:16:22.835Z,97076.00
2022-09-10T01:19:42.124Z,97055.00
2022-09-10T01:22:57.467Z,97065.00
2022-09-10T01:25:47.511Z,97063.00
2022-09-10T01:28:40.569Z,97068.00
2022-09-10T01:31:48.078Z,97072.00
2022-09-10T01:34:41.846Z,97070.00
2022-09-10T01:37:21.572Z,97066.00
2022-09-10T01:39:51.640Z,97066.00
2022-09-10T01:42:19.056Z,97073.00
2022-09-10T01:44:49.808Z,97072.00
2022-09-10T01:47:58.163Z,97061.00
2022-09-10T01:50:46.016Z,97067.00
2022-09-10T01:53:42.599Z,97063.00
2022-09-10T01:56:49.097Z,97062.00
2022-09-10T02:00:09.647Z,97057.00
2022-09-10T02:03:01.421Z,97056.00
2022-09-10T02:05:36.718Z,97037.00
2022-09-10T02:08:16.545Z,97049.00
2022-09-10T02:11:01.510Z,97046.00
2022-09-10T02:13:35.484Z,97048.00
2022-09-10T02:16:37.569Z,97051.00
2022-09-10T02:19:06.190Z,97050.00
2022-09-10T02:21:34.161Z,97043.00
2022-09-10T02:24:10.139Z,97041.00
2022-09-10T02:26:40.927Z,97056.00
2022-09-10T02:29:10.953Z,97050.00
2022-09-10T02:31:39.978Z,97042.00
2022-09-10T02:34:07.035Z,97055.00
2022-09-10T02:36:35.248Z,97046.00
2022-09-10T02:39:05.328Z,97044.00
2022-09-10T02:41:34.110Z,97054.00
2022-09-10T02:44:03.296Z,97062.00
2022-09-10T02:46:30.986Z,97049.00
2022-09-10T02:48:58.423Z,97051.00
2022-09-10T02:51:26.329Z,97042.00
2022-09-10T02:53:53.246Z,97052.00
2022-09-10T02:56:20.356Z,97044.00
2022-09-10T02:58:47.296Z,97054.00
2022-09-10T03:01:19.283Z,97042.00
2022-09-10T03:03:55.413Z,97046.00
2022-09-10T03:06:24.787Z,97051.00
2022-09-10T03:08:55.186Z,97032.00
2022-09-10T03:11:27.296Z,97045.00
2022-09-10T03:13:55.771Z,97050.00
2022-09-10T03:16:24.220Z,97049.00
2022-09-10T03:18:52.162Z,97044.00
2022-09-10T03:21:22.939Z,97048.00
2022-09-10T03:23:53.369Z,97048.00
2022-09-10T03:26:25.469Z,97044.00
2022-09-10T03:28:53.695Z,97046.00
2022-09-10T03:31:22.934Z,97042.00
2022-09-10T03:33:51.121Z,97035.00
2022-09-10T03:36:18.221Z,97050.00
2022-09-10T03:38:46.363Z,97043.00
2022-09-10T03:41:13.555Z,97040.00
2022-09-10T03:43:43.108Z,97037.00
2022-09-10T03:46:11.954Z,97061.00
2022-09-10T03:48:43.660Z,97042.00
2022-09-10T03:51:11.142Z,97041.00
2022-09-10T03:53:39.381Z,97044.00
2022-09-10T03:56:08.481Z,97042.00
2022-09-10T03:58:35.920Z,97057.00
2022-09-10T04:01:04.419Z,97043.00
2022-09-10T04:03:34.583Z,97038.00
2022-09-10T04:06:01.530Z,97036.00
2022-09-10T04:08:28.373Z,97046.00
2022-09-10T04:10:56.916Z,97034.00
2022-09-10T04:13:24.488Z,97048.00
2022-09-10T04:15:51.300Z,97034.00
2022-09-10T04:18:18.149Z,97043.00
2022-09-10T04:20:50.167Z,97042.00
2022-09-10T04:23:17.025Z,97048.00
2022-09-10T04:25:44.866Z,97046.00
2022-09-10T04:28:12.310Z,97056.00
2022-09-10T04:30:40.223Z,97051.00
2022-09-10T04:33:07.720Z,97052.00
2022-09-10T04:35:35.206Z,97053.00
2022-09-10T04:38:05.928Z,97052.00
2022-09-10T04:40:34.681Z,97055.00
2022-09-10T04:43:01.918Z,97050.00
2022-09-10T04:45:29.585Z,97047.00
2022-09-10T04:47:56.880Z,97054.00
2022-09-10T04:50:24.299Z,97057.00
2022-09-10T04:53:07.948Z,97066.00
2022-09-10T04:55:39.771Z,97063.00
2022-09-10T04:58:07.364Z,97066.00
2022-09-10T05:00:34.498Z,97063.00
2022-09-10T05:03:01.656Z,97056.00
2022-09-10T05:05:28.870Z,97069.00
2022-09-10T05:07:55.986Z,97056.00
2022-09-10T05:10:23.418Z,97062.00
2022-09-10T05:12:50.728Z,97071.00
2022-09-10T05:15:18.035Z,97067.00
2022-09-10T05:17:48.001Z,97075.00
2022-09-10T05:20:15.935Z,97066.00
2022-09-10T05:22:49.095Z,97069.00
2022-09-10T05:25:16.274Z,97050.00
2022-09-10T05:27:43.257Z,97051.00
2022-09-10T05:30:15.266Z,97061.00
2022-09-10T05:32:42.180Z,97078.00
2022-09-10T05:35:09.861Z,97077.00
2022-09-10T05:37:40.177Z,97077.00
2022-09-10T05:40:09.168Z,97059.00
2022-09-10T05:42:36.265Z,97062.00
2022-09-10T05:45:03.700Z,97072.00
2022-09-10T05:47:31.058Z,97079.00
2022-09-10T05:49:59.799Z,97067.00
2022-09-10T05:52:27.817Z,97066.00
2022-09-10T05:55:00.097Z,97076.00
2022-09-10T05:57:31.154Z,97065.00
2022-09-10T05:59:59.825Z,97064.00
2022-09-10T06:02:26.961Z,97067.00
2022-09-10T06:04:56.155Z,97075.00
2022-09-10T06:07:23.509Z,97081.00
2022-09-10T06:09:51.640Z,97080.00
2022-09-10T06:12:31.468Z,97071.00
2022-09-10T06:14:59.070Z,97077.00
2022-09-10T06:17:26.261Z,97085.00
2022-09-10T06:19:53.447Z,97090.00
2022-09-10T06:22:20.425Z,97086.00
2022-09-10T06:24:51.053Z,97097.00
2022-09-10T06:27:18.995Z,97098.00
2022-09-10T06:29:47.257Z,97087.00
2022-09-10T06:32:14.398Z,97096.00
2022-09-10T06:34:42.931Z,97107.00
2022-09-10T06:37:10.801Z,97109.00
2022-09-10T06:39:38.596Z,97102.00
2022-09-10T06:42:07.056Z,97095.00
2022-09-10T06:44:53.279Z,97094.00
2022-09-10T06:48:12.845Z,97108.00
2022-09-10T06:50:18.298Z,97103.00
2022-09-10T06:52:48.706Z,97115.00
2022-09-10T06:55:16.349Z,97108.00
2022-09-10T06:57:45.042Z,97113.00
2022-09-10T07:00:14.188Z,97115.00
2022-09-10T07:02:42.486Z,97108.00
2022-09-10T07:05:11.495Z,97111.00
2022-09-10T07:07:41.914Z,97113.00
2022-09-10T07:10:09.547Z,97119.00
2022-09-10T07:12:36.751Z,97109.00
2022-09-10T07:15:06.903Z,97125.00
2022-09-10T07:17:36.108Z,97117.00
2022-09-10T07:20:03.719Z,97101.00
2022-09-10T07:22:55.121Z,97112.00
2022-09-10T07:25:24.865Z,97130.00
2022-09-10T07:27:57.137Z,97116.00
2022-09-10T07:30:24.842Z,97123.00
2022-09-10T07:32:52.530Z,97120.00
2022-09-10T07:35:25.158Z,97130.00
2022-09-10T07:37:52.216Z,97127.00
2022-09-10T07:40:20.795Z,97123.00
2022-09-10T07:42:47.726Z,97139.00
2022-09-10T07:45:16.017Z,97139.00
2022-09-10T07:47:47.312Z,97134.00
2022-09-10T07:50:15.049Z,97130.00
2022-09-10T07:52:42.494Z,97140.00
2022-09-10T07:55:10.197Z,97135.00
2022-09-10T07:57:39.740Z,97139.00
2022-09-10T08:00:12.334Z,97146.00
2022-09-10T08:02:43.985Z,97129.00
2022-09-10T08:05:16.921Z,97137.00
2022-09-10T08:07:44.836Z,97140.00
2022-09-10T08:10:12.023Z,97143.00
2022-09-10T08:12:40.994Z,97151.00
2022-09-10T08:15:10.697Z,97141.00
2022-09-10T08:17:40.381Z,97155.00
2022-09-10T08:20:09.956Z,97141.00
2022-09-10T08:22:39.039Z,97156.00
2022-09-10T08:25:07.016Z,97160.00
2022-09-10T08:27:35.136Z,97166.00
2022-09-10T08:30:05.614Z,97162.00
2022-09-10T08:32:35.977Z,97165.00
2022-09-10T08:35:04.939Z,97167.00
2022-09-10T08:37:33.363Z,97168.00
2022-09-10T08:40:00.682Z,97155.00
2022-09-10T08:42:42.873Z,97167.00
2022-09-10T08:45:25.258Z,97161.00
2022-09-10T08:48:06.529Z,97169.00
2022-09-10T08:51:00.484Z,97158.00
2022-09-10T08:54:02.446Z,97179.00
2022-09-10T08:56:31.154Z,97168.00
2022-09-10T08:59:27.339Z,97175.00
2022-09-10T09:01:59.364Z,97174.00
2022-09-10T09:04:50.974Z,97175.00
2022-09-10T09:07:21.261Z,97177.00
2022-09-10T09:09:54.496Z,97183.00
2022-09-10T09:12:41.075Z,97178.00
2022-09-10T09:15:23.303Z,97179.00
2022-09-10T09:18:18.273Z,97189.00
2022-09-10T09:20:49.930Z,97172.00
2022-09-10T09:24:02.660Z,97181.00
2022-09-10T09:26:46.333Z,97187.00
2022-09-10T09:29:23.437Z,97174.00
2022-09-10T09:31:59.582Z,97175.00
2022-09-10T09:34:50.389Z,97185.00
2022-09-10T09:37:30.172Z,97183.00
2022-09-10T09:40:20.398Z,97177.00
2022-09-10T09:42:57.464Z,97172.00
2022-09-10T09:45:43.864Z,97169.00
2022-09-10T09:48:17.185Z,97176.00
2022-09-10T09:50:57.221Z,97168.00
2022-09-10T09:53:27.712Z,97167.00
2022-09-10T09:56:01.140Z,97176.00
2022-09-10T09:58:32.454Z,97165.00
2022-09-10T10:01:05.672Z,97177.00
2022-09-10T10:03:58.580Z,97181.00
2022-09-10T10:06:47.540Z,97169.00
2022-09-10T10:09:21.144Z,97169.00
2022-09-10T10:11:54.119Z,97180.00
2022-09-10T10:14:20.857Z,97169.00
2022-09-10T10:16:51.990Z,97170.00
2022-09-10T10:19:42.185Z,97161.00
2022-09-10T10:22:16.864Z,97169.00
2022-09-10T10:24:46.572Z,97172.00
2022-09-10T10:27:36.710Z,97169.00
2022-09-10T10:30:12.789Z,97152.00
2022-09-10T10:32:49.663Z,97161.00
2022-09-10T10:35:25.804Z,97169.00
2022-09-10T10:38:20.315Z,97166.00
2022-09-10T10:41:16.296Z,97164.00
2022-09-10T10:44:16.518Z,97157.00
2022-09-10T10:47:11.559Z,97160.00
2022-09-10T10:49:59.235Z,97160.00
2022-09-10T10:53:12.597Z,97164.00
2022-09-10T10:55:50.217Z,97171.00
2022-09-10T10:58:57.892Z,97149.00
2022-09-10T11:01:35.000Z,97153.00
2022-09-10T11:04:20.495Z,97155.00
2022-09-10T11:06:58.602Z,97152.00
2022-09-10T11:09:58.896Z,97154.00
2022-09-10T11:12:53.493Z,97156.00
2022-09-10T11:15:59.341Z,97151.00
2022-09-10T11:18:52.440Z,97143.00
2022-09-10T11:21:31.584Z,97155.00
2022-09-10T11:24:23.196Z,97153.00
2022-09-10T11:26:58.299Z,97148.00
2022-09-10T11:29:52.428Z,97155.00
2022-09-10T11:32:40.448Z,97149.00
2022-09-10T11:35:34.235Z,97140.00
2022-09-10T11:38:27.286Z,97159.00
2022-09-10T11:41:22.957Z,97150.00
2022-09-10T11:44:02.241Z,97155.00
2022-09-10T11:46:36.029Z,97152.00
2022-09-10T11:49:21.659Z,97145.00
2022-09-10T11:51:50.392Z,97143.00
2022-09-10T11:54:27.190Z,97130.00
2022-09-10T11:57:06.567Z,97147.00
2022-09-10T12:00:15.822Z,97136.00
2022-09-10T12:03:09.936Z,97127.00
2022-09-10T12:05:59.455Z,97137.00
2022-09-10T12:08:56.829Z,97144.00
2022-09-10T12:12:07.746Z,97134.00
2022-09-10T12:14:40.894Z,97136.00
2022-09-10T12:17:41.410Z,97136.00
2022-09-10T12:20:20.464Z,97134.00
2022-09-10T12:22:55.064Z,97130.00
2022-09-10T12:25:21.926Z,97138.00
2022-09-10T12:28:43.000Z,97140.00
2022-09-10T12:31:16.541Z,97149.00
2022-09-10T12:33:46.088Z,97142.00
2022-09-10T12:36:29.334Z,97154.00
2022-09-10T12:39:27.292Z,97134.00
2022-09-10T12:41:57.840Z,97148.00
2022-09-10T12:44:37.571Z,97158.00
2022-09-10T12:47:16.545Z,97156.00
2022-09-10T12:49:57.126Z,97151.00
2022-09-10T12:53:03.042Z,97155.00
2022-09-10T12:55:52.448Z,97155.00
2022-09-10T12:58:54.337Z,97144.00
2022-09-10T13:01:40.129Z,97164.00
2022-09-10T13:04:31.083Z,97146.00
2022-09-10T13:07:22.282Z,97139.00
2022-09-10T13:10:14.941Z,97143.00
2022-09-10T13:12:45.695Z,97146.00
2022-09-10T13:15:24.704Z,97146.00
2022-09-10T13:17:51.549Z,97166.00
2022-09-10T13:20:21.122Z,97152.00
2022-09-10T13:23:03.845Z,97155.00
2022-09-10T13:25:46.370Z,97150.00
2022-09-10T13:28:32.656Z,97159.00
2022-09-10T13:31:10.911Z,97150.00
2022-09-10T13:33:49.730Z,97158.00
2022-09-10T13:36:37.618Z,97157.00
2022-09-10T13:39:46.162Z,97153.00
2022-09-10T13:42:35.732Z,97152.00
2022-09-10T13:45:17.818Z,97145.00
2022-09-10T13:48:02.685Z,97136.00
2022-09-10T13:50:49.998Z,97149.00
2022-09-10T13:53:19.604Z,97139.00
2022-09-10T13:56:12.339Z,97132.00
2022-09-10T13:58:50.043Z,97129.00
2022-09-10T14:01:17.536Z,97137.00
2022-09-10T14:03:47.689Z,97139.00
2022-09-10T14:06:23.895Z,97150.00
2022-09-10T14:09:04.894Z,97154.00
2022-09-10T14:11:38.755Z,97147.00
2022-09-10T14:14:18.343Z,97142.00
2022-09-10T14:16:54.162Z,97143.00
2022-09-10T14:19:30.079Z,97135.00
2022-09-10T14:21:57.530Z,97142.00
2022-09-10T14:24:39.580Z,97139.00
2022-09-10T14:27:27.603Z,97150.00
2022-09-10T14:29:56.671Z,97133.00
2022-09-10T14:32:32.935Z,97131.00
2022-09-10T14:35:42.894Z,97127.00
2022-09-10T14:38:35.459Z,97127.00
2022-09-10T14:41:21.663Z,97134.00
2022-09-10T14:43:50.004Z,97126.00
2022-09-10T14:46:59.426Z,97130.00
2022-09-10T14:49:36.439Z,97127.00
2022-09-10T14:52:04.451Z,97133.00
2022-09-10T14:54:34.161Z,97138.00
2022-09-10T14:57:13.122Z,97129.00
2022-09-10T14:59:43.486Z,97121.00
2022-09-10T15:02:27.591Z,97130.00
2022-09-10T15:04:55.361Z,97135.00
2022-09-10T15:07:24.986Z,97134.00
2022-09-10T15:09:53.649Z,97135.00
2022-09-10T15:12:32.658Z,97134.00
2022-09-10T15:14:59.710Z,97136.00
2022-09-10T15:17:26.941Z,97127.00
2022-09-10T15:19:55.179Z,97144.00
2022-09-10T15:22:28.659Z,97128.00
2022-09-10T15:25:09.789Z,97134.00
2022-09-10T15:27:37.437Z,97124.00
2022-09-10T15:30:05.755Z,97141.00
2022-09-10T15:32:32.766Z,97128.00
2022-09-10T15:34:59.714Z,97125.00
2022-09-10T15:37:27.043Z,97133.00
2022-09-10T15:39:54.543Z,97130.00
2022-09-10T15:42:21.544Z,97139.00
2022-09-10T15:44:48.357Z,97129.00
2022-09-10T15:47:15.278Z,97131.00
2022-09-10T15:49:42.193Z,97142.00
2022-09-10T15:52:10.112Z,97127.00
2022-09-10T15:54:36.958Z,97143.00
2022-09-10T15:57:03.924Z,97120.00
2022-09-10T15:59:30.835Z,97119.00
2022-09-10T16:01:58.337Z,97135.00
2022-09-10T16:04:25.611Z,97138.00
2022-09-10T16:06:52.497Z,97118.00
2022-09-10T16:09:19.430Z,97106.00
2022-09-10T16:11:46.389Z,97106.00
2022-09-10T16:14:18.602Z,97114.00
2022-09-10T16:16:45.693Z,97123.00
2022-09-10T16:19:13.281Z,97121.00
2022-09-10T16:21:40.381Z,97101.00
2022-09-10T16:24:07.519Z,97127.00
2022-09-10T16:26:43.492Z,97116.00
2022-09-10T16:29:17.255Z,97121.00
2022-09-10T16:31:48.015Z,97117.00
2022-09-10T16:34:18.457Z,97126.00
2022-09-10T16:36:51.284Z,97115.00
2022-09-10T16:39:19.595Z,97131.00
2022-09-10T16:41:49.723Z,97139.00
2022-09-10T16:44:18.731Z,97122.00
2022-09-10T16:46:47.051Z,97122.00
2022-09-10T16:49:17.700Z,97119.00
2022-09-10T16:51:47.257Z,97120.00
2022-09-10T16:54:15.851Z,97132.00
2022-09-10T16:56:45.830Z,97139.00
2022-09-10T16:59:20.564Z,97137.00
2022-09-10T17:01:49.061Z,97144.00
2022-09-10T17:04:28.962Z,97146.00
2022-09-10T17:06:57.930Z,97147.00
2022-09-10T17:09:25.218Z,97153.00
2022-09-10T17:11:53.437Z,97154.00
2022-09-10T17:14:20.340Z,97142.00
2022-09-10T17:16:48.347Z,97162.00
2022-09-10T17:19:23.291Z,97154.00
2022-09-10T17:21:53.208Z,97160.00
2022-09-10T17:24:24.184Z,97160.00
2022-09-10T17:26:54.934Z,97149.00
2022-09-10T17:29:25.534Z,97155.00
2022-09-10T17:31:54.750Z,97167.00
2022-09-10T17:34:24.211Z,97146.00
2022-09-10T17:36:51.405Z,97154.00
2022-09-10T17:39:18.883Z,97147.00
2022-09-10T17:41:46.429Z,97159.00
2022-09-10T17:44:14.504Z,97161.00
2022-09-10T17:46:42.727Z,97181.00
2022-09-10T17:49:14.119Z,97185.00
2022-09-10T17:51:42.215Z,97188.00
2022-09-10T17:54:09.140Z,97178.00
2022-09-10T17:56:38.200Z,97179.00
2022-09-10T17:59:06.209Z,97169.00
2022-09-10T18:01:38.622Z,97188.00
2022-09-10T18:04:08.655Z,97193.00
2022-09-10T18:06:36.920Z,97182.00
2022-09-10T18:09:06.246Z,97192.00
2022-09-10T18:11:37.692Z,97190.00
2022-09-10T18:14:04.959Z,97197.00
2022-09-10T18:16:34.169Z,97201.00
2022-09-10T18:19:14.405Z,97208.00
2022-09-10T18:21:43.733Z,97208.00
2022-09-10T18:24:22.598Z,97210.00
2022-09-10T18:26:53.663Z,97214.00
2022-09-10T18:29:25.453Z,97214.00
2022-09-10T18:31:59.024Z,97224.00
2022-09-10T18:34:29.632Z,97218.00
2022-09-10T18:36:59.677Z,97214.00
2022-09-10T18:39:30.285Z,97229.00
2022-09-10T18:41:59.664Z,97227.00
2022-09-10T18:44:40.248Z,97227.00
2022-09-10T18:47:27.847Z,97252.00
2022-09-10T18:49:57.795Z,97247.00
2022-09-10T18:52:24.746Z,97245.00
2022-09-10T18:54:51.627Z,97260.00
2022-09-10T18:57:18.499Z,97261.00
2022-09-10T18:59:45.521Z,97270.00
2022-09-10T19:02:12.878Z,97269.00
2022-09-10T19:05:00.436Z,97255.00
2022-09-10T19:07:27.151Z,97263.00
2022-09-10T19:09:54.645Z,97278.00
2022-09-10T19:12:22.265Z,97271.00
2022-09-10T19:14:49.125Z,97289.00
2022-09-10T19:17:16.027Z,97285.00
2022-09-10T19:19:43.021Z,97280.00
2022-09-10T19:22:10.586Z,97293.00
2022-09-10T19:24:54.627Z,97284.00
2022-09-10T19:27:23.839Z,97299.00
2022-09-10T19:29:50.769Z,97290.00
2022-09-10T19:32:19.596Z,97297.00
2022-09-10T19:34:52.402Z,97297.00
2022-09-10T19:37:19.707Z,97303.00
2022-09-10T19:39:47.422Z,97294.00
2022-09-10T19:42:14.648Z,97300.00
2022-09-10T19:44:41.493Z,97303.00
2022-09-10T19:47:08.435Z,97311.00
2022-09-10T19:49:35.332Z,97310.00
2022-09-10T19:52:04.193Z,97318.00
2022-09-10T19:54:31.797Z,97318.00
2022-09-10T19:56:58.614Z,97316.00
2022-09-10T19:59:25.699Z,97318.00
2022-09-10T20:01:53.385Z,97323.00
2022-09-10T20:04:20.435Z,97327.00
2022-09-10T20:06:47.639Z,97332.00
2022-09-10T20:09:14.623Z,97328.00
2022-09-10T20:11:42.220Z,97323.00
2022-09-10T20:14:13.274Z,97334.00
2022-09-10T20:16:44.006Z,97333.00
2022-09-10T20:19:14.718Z,97345.00
2022-09-10T20:21:42.133Z,97346.00
2022-09-10T20:24:09.968Z,97347.00
2022-09-10T20:26:40.966Z,97354.00
2022-09-10T20:29:15.257Z,97353.00
2022-09-10T20:31:43.387Z,97363.00
2022-09-10T20:34:17.546Z,97350.00
2022-09-10T20:36:45.093Z,97358.00
2022-09-10T20:39:15.932Z,97362.00
2022-09-10T20:41:43.994Z,97369.00
2022-09-10T20:44:15.223Z,97371.00
2022-09-10T20:46:43.132Z,97369.00
2022-09-10T20:49:12.597Z,97384.00
2022-09-10T20:51:40.791Z,97380.00
2022-09-10T20:54:12.410Z,97388.00
2022-09-10T20:56:39.713Z,97383.00
2022-09-10T20:59:07.031Z,97384.00
2022-09-10T21:01:34.306Z,97383.00
2022-09-10T21:04:02.928Z,97399.00
2022-09-10T21:06:32.846Z,97381.00
2022-09-10T21:09:01.349Z,97398.00
2022-09-10T21:11:31.564Z,97384.00
2022-09-10T21:14:02.348Z,97410.00
2022-09-10T21:16:33.434Z,97397.00
2022-09-10T21:19:05.065Z,97409.00
2022-09-10T21:21:34.514Z,97409.00
2022-09-10T21:24:22.436Z,97407.00
2022-09-10T21:26:50.403Z,97414.00
2022-09-10T21:29:20.080Z,97427.00
2022-09-10T21:31:50.634Z,97420.00
2022-09-10T21:34:17.826Z,97425.00
2022-09-10T21:36:46.015Z,97430.00
2022-09-10T21:39:17.597Z,97417.00
2022-09-10T21:41:50.512Z,97422.00
2022-09-10T21:44:21.890Z,97412.00
2022-09-10T21:46:49.817Z,97428.00
2022-09-10T21:49:18.350Z,97444.00
2022-09-10T21:51:45.564Z,97425.00
2022-09-10T21:54:20.778Z,97443.00
2022-09-10T21:56:50.295Z,97431.00
2022-09-10T21:59:18.130Z,97434.00
2022-09-10T22:01:47.027Z,97440.00
2022-09-10T22:04:18.787Z,97435.00
2022-09-10T22:06:48.733Z,97450.00
2022-09-10T22:09:16.720Z,97445.00
2022-09-10T22:11:47.362Z,97456.00
2022-09-10T22:14:23.529Z,97464.00
2022-09-10T22:16:52.292Z,97456.00
2022-09-10T22:19:23.544Z,97467.00
2022-09-10T22:21:51.795Z,97465.00
2022-09-10T22:24:18.853Z,97455.00
2022-09-10T22:26:47.448Z,97476.00
2022-09-10T22:29:18.665Z,97476.00
2022-09-10T22:31:46.668Z,97476.00
2022-09-10T22:34:16.414Z,97479.00
2022-09-10T22:36:45.553Z,97465.00
2022-09-10T22:39:19.079Z,97464.00
2022-09-10T22:41:46.967Z,97470.00
2022-09-10T22:44:14.647Z,97467.00
2022-09-10T22:46:42.581Z,97475.00
2022-09-10T22:49:09.965Z,97463.00
2022-09-10T22:51:41.058Z,97460.00
2022-09-10T22:54:10.512Z,97469.00
2022-09-10T22:56:37.922Z,97479.00
2022-09-10T22:59:06.747Z,97482.00
2022-09-10T23:01:38.644Z,97480.00
2022-09-10T23:04:07.671Z,97496.00
2022-09-10T23:06:37.701Z,97499.00
2022-09-10T23:09:15.139Z,97500.00
2022-09-10T23:11:44.373Z,97509.00
2022-09-10T23:14:21.935Z,97514.00
2022-09-10T23:16:51.651Z,97505.00
2022-09-10T23:19:24.501Z,97517.00
2022-09-10T23:21:55.222Z,97517.00
2022-09-10T23:24:26.426Z,97514.00
2022-09-10T23:26:54.172Z,97525.00
2022-09-10T23:29:22.879Z,97519.00
2022-09-10T23:31:52.825Z,97529.00
2022-09-10T23:34:20.858Z,97530.00
2022-09-10T23:36:50.037Z,97539.00
2022-09-10T23:39:20.578Z,97537.00
2022-09-10T23:41:50.250Z,97542.00
2022-09-10T23:44:17.886Z,97549.00
2022-09-10T23:46:44.941Z,97559.00
2022-09-10T23:49:12.739Z,97554.00
2022-09-10T23:51:39.671Z,97561.00
2022-09-10T23:54:06.717Z,97550.00
2022-09-10T23:56:33.559Z,97537.00
2022-09-10T23:59:00.719Z,97549.00
